sensor_id;sensor_type;location;lat;lon;timestamp;temperature;humidity
24682;DHT22;12802;53.390;-2.328;2023-03-01T00:02:21;6.80;99.90
24682;DHT22;12802;53.390;-2.328;2023-03-01T00:04:47;6.80;99.90
24682;DHT22;12802;53.390;-2.328;2023-03-01T00:07:12;6.90;99.90
24682;DHT22;12802;53.390;-2.328;2023-03-01T00:09:38;6.80;99.90
24682;DHT22;12802;53.390;-2.328;2023-03-01T00:12:06;6.70;99.90
24682;DHT22;12802;53.390;-2.328;2023-03-01T00:14:32;6.70;99.90
24682;DHT22;12802;53.390;-2.328;2023-03-01T00:16:57;6.70;99.90
24682;DHT22;12802;53.390;-2.328;2023-03-01T00:19:23;6.80;99.90
24682;DHT22;12802;53.390;-2.328;2023-03-01T00:21:49;6.70;99.90
24682;DHT22;12802;53.390;-2.328;2023-03-01T00:24:16;6.70;99.90
24682;DHT22;12802;53.390;-2.328;2023-03-01T00:26:42;6.60;99.90
24682;DHT22;12802;53.390;-2.328;2023-03-01T00:29:08;6.70;99.90
24682;DHT22;12802;53.390;-2.328;2023-03-01T00:31:34;6.70;99.90
24682;DHT22;12802;53.390;-2.328;2023-03-01T00:34:03;6.60;99.90
24682;DHT22;12802;53.390;-2.328;2023-03-01T00:36:31;6.60;99.90
24682;DHT22;12802;53.390;-2.328;2023-03-01T00:38:57;6.60;99.90
24682;DHT22;12802;53.390;-2.328;2023-03-01T00:41:23;6.70;99.90
24682;DHT22;12802;53.390;-2.328;2023-03-01T00:43:50;6.70;99.90
24682;DHT22;12802;53.390;-2.328;2023-03-01T00:46:18;6.70;99.90
24682;DHT22;12802;53.390;-2.328;2023-03-01T00:48:45;6.80;99.90
24682;DHT22;12802;53.390;-2.328;2023-03-01T00:51:20;6.90;99.90
24682;DHT22;12802;53.390;-2.328;2023-03-01T00:53:47;7.00;99.90
24682;DHT22;12802;53.390;-2.328;2023-03-01T00:56:15;7.00;99.90
24682;DHT22;12802;53.390;-2.328;2023-03-01T00:58:41;6.90;99.90
24682;DHT22;12802;53.390;-2.328;2023-03-01T01:01:10;6.90;99.90
24682;DHT22;12802;53.390;-2.328;2023-03-01T01:03:50;6.80;99.90
24682;DHT22;12802;53.390;-2.328;2023-03-01T01:06:25;6.60;99.90
24682;DHT22;12802;53.390;-2.328;2023-03-01T01:08:53;6.60;99.90
24682;DHT22;12802;53.390;-2.328;2023-03-01T01:11:19;6.70;99.90
24682;DHT22;12802;53.390;-2.328;2023-03-01T01:13:46;6.70;99.90
24682;DHT22;12802;53.390;-2.328;2023-03-01T01:16:13;6.60;99.90
24682;DHT22;12802;53.390;-2.328;2023-03-01T01:18:39;6.50;99.90
24682;DHT22;12802;53.390;-2.328;2023-03-01T01:21:09;6.60;99.90
24682;DHT22;12802;53.390;-2.328;2023-03-01T01:23:36;6.60;99.90
24682;DHT22;12802;53.390;-2.328;2023-03-01T01:26:11;6.70;99.90
24682;DHT22;12802;53.390;-2.328;2023-03-01T01:28:37;6.70;99.90
24682;DHT22;12802;53.390;-2.328;2023-03-01T01:31:04;6.60;99.90
24682;DHT22;12802;53.390;-2.328;2023-03-01T01:33:30;6.60;99.90
24682;DHT22;12802;53.390;-2.328;2023-03-01T01:35:56;6.60;99.90
24682;DHT22;12802;53.390;-2.328;2023-03-01T01:38:22;6.60;99.90
24682;DHT22;12802;53.390;-2.328;2023-03-01T01:40:49;6.60;99.90
24682;DHT22;12802;53.390;-2.328;2023-03-01T01:43:27;6.50;99.90
24682;DHT22;12802;53.390;-2.328;2023-03-01T01:46:15;6.50;99.90
24682;DHT22;12802;53.390;-2.328;2023-03-01T01:48:57;6.40;99.90
24682;DHT22;12802;53.390;-2.328;2023-03-01T01:51:28;6.40;99.90
24682;DHT22;12802;53.390;-2.328;2023-03-01T01:54:08;6.50;99.90
24682;DHT22;12802;53.390;-2.328;2023-03-01T01:56:37;6.40;99.90
24682;DHT22;12802;53.390;-2.328;2023-03-01T01:59:05;6.40;99.90
24682;DHT22;12802;53.390;-2.328;2023-03-01T02:01:31;6.40;99.90
24682;DHT22;12802;53.390;-2.328;2023-03-01T02:03:57;6.30;99.90
24682;DHT22;12802;53.390;-2.328;2023-03-01T02:06:32;6.40;99.90
24682;DHT22;12802;53.390;-2.328;2023-03-01T02:09:03;6.40;99.90
24682;DHT22;12802;53.390;-2.328;2023-03-01T02:11:31;6.30;99.90
24682;DHT22;12802;53.390;-2.328;2023-03-01T02:13:58;6.30;99.90
24682;DHT22;12802;53.390;-2.328;2023-03-01T02:16:25;6.20;99.90
24682;DHT22;12802;53.390;-2.328;2023-03-01T02:18:52;6.20;99.90
24682;DHT22;12802;53.390;-2.328;2023-03-01T02:26:51;6.30;99.90
24682;DHT22;12802;53.390;-2.328;2023-03-01T02:29:19;6.20;99.90
24682;DHT22;12802;53.390;-2.328;2023-03-01T02:31:45;6.20;99.90
24682;DHT22;12802;53.390;-2.328;2023-03-01T02:34:13;6.10;99.90
24682;DHT22;12802;53.390;-2.328;2023-03-01T02:39:17;6.10;99.90
24682;DHT22;12802;53.390;-2.328;2023-03-01T02:41:48;6.00;99.90
24682;DHT22;12802;53.390;-2.328;2023-03-01T02:44:15;6.00;99.90
24682;DHT22;12802;53.390;-2.328;2023-03-01T02:46:46;5.90;99.90
24682;DHT22;12802;53.390;-2.328;2023-03-01T02:57:27;6.00;99.90
24682;DHT22;12802;53.390;-2.328;2023-03-01T02:59:55;6.00;99.90
24682;DHT22;12802;53.390;-2.328;2023-03-01T03:02:25;6.00;99.90
24682;DHT22;12802;53.390;-2.328;2023-03-01T03:05:24;6.00;99.90
24682;DHT22;12802;53.390;-2.328;2023-03-01T03:07:54;6.00;99.90
24682;DHT22;12802;53.390;-2.328;2023-03-01T03:12:56;6.00;99.90
24682;DHT22;12802;53.390;-2.328;2023-03-01T03:15:23;6.00;99.90
24682;DHT22;12802;53.390;-2.328;2023-03-01T03:17:50;6.10;99.90
24682;DHT22;12802;53.390;-2.328;2023-03-01T03:20:19;6.10;99.90
24682;DHT22;12802;53.390;-2.328;2023-03-01T03:22:47;6.10;99.90
24682;DHT22;12802;53.390;-2.328;2023-03-01T03:25:13;6.20;99.90
24682;DHT22;12802;53.390;-2.328;2023-03-01T03:27:41;6.20;99.90
24682;DHT22;12802;53.390;-2.328;2023-03-01T03:30:10;6.20;99.90
24682;DHT22;12802;53.390;-2.328;2023-03-01T03:32:42;6.30;99.90
24682;DHT22;12802;53.390;-2.328;2023-03-01T03:35:23;6.20;99.90
24682;DHT22;12802;53.390;-2.328;2023-03-01T03:37:50;6.20;99.90
24682;DHT22;12802;53.390;-2.328;2023-03-01T03:40:39;6.20;99.90
24682;DHT22;12802;53.390;-2.328;2023-03-01T03:43:14;6.20;99.90
24682;DHT22;12802;53.390;-2.328;2023-03-01T03:45:40;6.20;99.90
24682;DHT22;12802;53.390;-2.328;2023-03-01T03:48:08;6.10;99.90
24682;DHT22;12802;53.390;-2.328;2023-03-01T03:50:34;6.20;99.90
24682;DHT22;12802;53.390;-2.328;2023-03-01T03:53:02;6.20;99.90
24682;DHT22;12802;53.390;-2.328;2023-03-01T03:55:28;6.30;99.90
24682;DHT22;12802;53.390;-2.328;2023-03-01T03:57:58;6.30;99.90
24682;DHT22;12802;53.390;-2.328;2023-03-01T04:00:26;6.30;99.90
24682;DHT22;12802;53.390;-2.328;2023-03-01T04:02:52;6.40;99.90
24682;DHT22;12802;53.390;-2.328;2023-03-01T04:05:22;6.30;99.90
24682;DHT22;12802;53.390;-2.328;2023-03-01T04:07:48;6.40;99.90
24682;DHT22;12802;53.390;-2.328;2023-03-01T04:10:16;6.30;99.90
24682;DHT22;12802;53.390;-2.328;2023-03-01T04:12:42;6.30;99.90
24682;DHT22;12802;53.390;-2.328;2023-03-01T04:15:11;6.20;99.90
24682;DHT22;12802;53.390;-2.328;2023-03-01T04:17:44;6.10;99.90
24682;DHT22;12802;53.390;-2.328;2023-03-01T04:20:14;6.10;99.90
24682;DHT22;12802;53.390;-2.328;2023-03-01T04:22:43;6.10;99.90
24682;DHT22;12802;53.390;-2.328;2023-03-01T04:25:12;6.10;99.90
24682;DHT22;12802;53.390;-2.328;2023-03-01T04:27:40;6.00;99.90
24682;DHT22;12802;53.390;-2.328;2023-03-01T04:30:07;6.10;99.90
24682;DHT22;12802;53.390;-2.328;2023-03-01T04:32:33;6.00;99.90
24682;DHT22;12802;53.390;-2.328;2023-03-01T04:34:59;6.00;99.90
24682;DHT22;12802;53.390;-2.328;2023-03-01T04:37:26;6.10;99.90
24682;DHT22;12802;53.390;-2.328;2023-03-01T04:39:51;6.10;99.90
24682;DHT22;12802;53.390;-2.328;2023-03-01T04:42:18;6.10;99.90
24682;DHT22;12802;53.390;-2.328;2023-03-01T04:44:45;6.10;99.90
24682;DHT22;12802;53.390;-2.328;2023-03-01T04:47:11;6.10;99.90
24682;DHT22;12802;53.390;-2.328;2023-03-01T04:49:36;6.10;99.90
24682;DHT22;12802;53.390;-2.328;2023-03-01T04:52:03;6.10;99.90
24682;DHT22;12802;53.390;-2.328;2023-03-01T04:54:30;6.00;99.90
24682;DHT22;12802;53.390;-2.328;2023-03-01T04:56:56;6.00;99.90
24682;DHT22;12802;53.390;-2.328;2023-03-01T04:59:22;6.00;99.90
24682;DHT22;12802;53.390;-2.328;2023-03-01T05:01:49;6.00;99.90
24682;DHT22;12802;53.390;-2.328;2023-03-01T05:04:15;6.00;99.90
24682;DHT22;12802;53.390;-2.328;2023-03-01T05:06:41;6.00;99.90
24682;DHT22;12802;53.390;-2.328;2023-03-01T05:09:06;6.00;99.90
24682;DHT22;12802;53.390;-2.328;2023-03-01T05:11:32;6.10;99.90
24682;DHT22;12802;53.390;-2.328;2023-03-01T05:14:08;6.10;99.90
24682;DHT22;12802;53.390;-2.328;2023-03-01T05:16:34;6.10;99.90
24682;DHT22;12802;53.390;-2.328;2023-03-01T05:19:02;6.10;99.90
24682;DHT22;12802;53.390;-2.328;2023-03-01T05:21:39;6.20;99.90
24682;DHT22;12802;53.390;-2.328;2023-03-01T05:24:25;6.20;99.90
24682;DHT22;12802;53.390;-2.328;2023-03-01T05:26:52;6.20;99.90
24682;DHT22;12802;53.390;-2.328;2023-03-01T05:29:19;6.20;99.90
24682;DHT22;12802;53.390;-2.328;2023-03-01T05:31:58;6.10;99.90
24682;DHT22;12802;53.390;-2.328;2023-03-01T05:34:30;6.10;99.90
24682;DHT22;12802;53.390;-2.328;2023-03-01T05:36:56;6.20;99.90
24682;DHT22;12802;53.390;-2.328;2023-03-01T05:39:24;6.20;99.90
24682;DHT22;12802;53.390;-2.328;2023-03-01T05:41:59;6.30;99.90
24682;DHT22;12802;53.390;-2.328;2023-03-01T05:44:25;6.20;99.90
24682;DHT22;12802;53.390;-2.328;2023-03-01T05:46:51;6.20;99.90
24682;DHT22;12802;53.390;-2.328;2023-03-01T05:49:18;6.30;99.90
24682;DHT22;12802;53.390;-2.328;2023-03-01T05:51:49;6.30;99.90
24682;DHT22;12802;53.390;-2.328;2023-03-01T05:54:15;6.30;99.90
24682;DHT22;12802;53.390;-2.328;2023-03-01T05:56:41;6.30;99.90
24682;DHT22;12802;53.390;-2.328;2023-03-01T05:59:07;6.20;99.90
24682;DHT22;12802;53.390;-2.328;2023-03-01T06:01:33;6.20;99.90
24682;DHT22;12802;53.390;-2.328;2023-03-01T06:04:00;6.20;99.90
24682;DHT22;12802;53.390;-2.328;2023-03-01T06:06:26;6.20;99.90
24682;DHT22;12802;53.390;-2.328;2023-03-01T06:08:52;6.10;99.90
24682;DHT22;12802;53.390;-2.328;2023-03-01T06:11:19;6.10;99.90
24682;DHT22;12802;53.390;-2.328;2023-03-01T06:13:46;6.20;99.90
24682;DHT22;12802;53.390;-2.328;2023-03-01T06:16:12;6.20;99.90
24682;DHT22;12802;53.390;-2.328;2023-03-01T06:18:38;6.30;99.90
24682;DHT22;12802;53.390;-2.328;2023-03-01T06:21:05;6.20;99.90
24682;DHT22;12802;53.390;-2.328;2023-03-01T06:23:31;6.20;99.90
24682;DHT22;12802;53.390;-2.328;2023-03-01T06:25:57;6.30;99.90
24682;DHT22;12802;53.390;-2.328;2023-03-01T06:28:23;6.30;99.90
24682;DHT22;12802;53.390;-2.328;2023-03-01T06:30:49;6.30;99.90
24682;DHT22;12802;53.390;-2.328;2023-03-01T06:33:15;6.30;99.90
24682;DHT22;12802;53.390;-2.328;2023-03-01T06:35:41;6.30;99.90
24682;DHT22;12802;53.390;-2.328;2023-03-01T06:38:07;6.30;99.90
24682;DHT22;12802;53.390;-2.328;2023-03-01T06:40:33;6.30;99.90
24682;DHT22;12802;53.390;-2.328;2023-03-01T06:43:01;6.30;99.90
24682;DHT22;12802;53.390;-2.328;2023-03-01T06:45:27;6.30;99.90
24682;DHT22;12802;53.390;-2.328;2023-03-01T06:47:56;6.30;99.90
24682;DHT22;12802;53.390;-2.328;2023-03-01T06:50:26;6.30;99.90
24682;DHT22;12802;53.390;-2.328;2023-03-01T06:52:56;6.30;99.90
24682;DHT22;12802;53.390;-2.328;2023-03-01T06:55:21;6.40;99.90
24682;DHT22;12802;53.390;-2.328;2023-03-01T06:57:47;6.40;99.90
24682;DHT22;12802;53.390;-2.328;2023-03-01T07:00:13;6.50;99.90
24682;DHT22;12802;53.390;-2.328;2023-03-01T07:02:39;6.50;99.90
24682;DHT22;12802;53.390;-2.328;2023-03-01T07:05:05;6.60;99.90
24682;DHT22;12802;53.390;-2.328;2023-03-01T07:07:31;6.60;99.90
24682;DHT22;12802;53.390;-2.328;2023-03-01T07:09:57;6.50;99.90
24682;DHT22;12802;53.390;-2.328;2023-03-01T07:12:23;6.50;99.90
24682;DHT22;12802;53.390;-2.328;2023-03-01T07:14:49;6.50;99.90
24682;DHT22;12802;53.390;-2.328;2023-03-01T07:17:14;6.50;99.90
24682;DHT22;12802;53.390;-2.328;2023-03-01T07:19:40;6.50;99.90
24682;DHT22;12802;53.390;-2.328;2023-03-01T07:22:06;6.60;99.90
24682;DHT22;12802;53.390;-2.328;2023-03-01T07:24:33;6.50;99.90
24682;DHT22;12802;53.390;-2.328;2023-03-01T07:26:59;6.50;99.90
24682;DHT22;12802;53.390;-2.328;2023-03-01T07:29:25;6.50;99.90
24682;DHT22;12802;53.390;-2.328;2023-03-01T07:31:50;6.60;99.90
24682;DHT22;12802;53.390;-2.328;2023-03-01T07:34:16;6.40;99.90
24682;DHT22;12802;53.390;-2.328;2023-03-01T07:36:42;6.40;99.90
24682;DHT22;12802;53.390;-2.328;2023-03-01T07:39:10;6.30;99.90
24682;DHT22;12802;53.390;-2.328;2023-03-01T07:41:36;6.30;99.90
24682;DHT22;12802;53.390;-2.328;2023-03-01T07:44:03;6.30;99.90
24682;DHT22;12802;53.390;-2.328;2023-03-01T07:46:28;6.40;99.90
24682;DHT22;12802;53.390;-2.328;2023-03-01T07:48:54;6.40;99.90
24682;DHT22;12802;53.390;-2.328;2023-03-01T07:51:20;6.50;99.90
24682;DHT22;12802;53.390;-2.328;2023-03-01T07:53:46;6.40;99.90
24682;DHT22;12802;53.390;-2.328;2023-03-01T07:56:14;6.40;99.90
24682;DHT22;12802;53.390;-2.328;2023-03-01T07:58:42;6.40;99.90
24682;DHT22;12802;53.390;-2.328;2023-03-01T08:01:11;6.40;99.90
24682;DHT22;12802;53.390;-2.328;2023-03-01T08:03:38;6.40;99.90
24682;DHT22;12802;53.390;-2.328;2023-03-01T08:06:06;6.50;99.90
24682;DHT22;12802;53.390;-2.328;2023-03-01T08:08:32;6.50;99.90
24682;DHT22;12802;53.390;-2.328;2023-03-01T08:10:59;6.60;99.90
24682;DHT22;12802;53.390;-2.328;2023-03-01T08:13:26;6.70;99.90
24682;DHT22;12802;53.390;-2.328;2023-03-01T08:15:51;6.70;99.90
24682;DHT22;12802;53.390;-2.328;2023-03-01T08:18:19;6.80;99.90
24682;DHT22;12802;53.390;-2.328;2023-03-01T08:20:46;6.90;99.90
24682;DHT22;12802;53.390;-2.328;2023-03-01T08:23:12;6.90;99.90
24682;DHT22;12802;53.390;-2.328;2023-03-01T08:25:38;6.90;99.90
24682;DHT22;12802;53.390;-2.328;2023-03-01T08:28:05;7.00;99.90
24682;DHT22;12802;53.390;-2.328;2023-03-01T08:30:31;7.00;99.90
24682;DHT22;12802;53.390;-2.328;2023-03-01T08:32:57;7.00;99.90
24682;DHT22;12802;53.390;-2.328;2023-03-01T08:35:23;7.00;99.90
24682;DHT22;12802;53.390;-2.328;2023-03-01T08:37:49;7.00;99.90
24682;DHT22;12802;53.390;-2.328;2023-03-01T08:40:15;7.00;99.90
24682;DHT22;12802;53.390;-2.328;2023-03-01T08:42:41;7.00;99.90
24682;DHT22;12802;53.390;-2.328;2023-03-01T08:45:11;7.00;99.90
24682;DHT22;12802;53.390;-2.328;2023-03-01T08:47:36;6.90;99.90
24682;DHT22;12802;53.390;-2.328;2023-03-01T08:50:03;6.90;99.90
24682;DHT22;12802;53.390;-2.328;2023-03-01T08:52:29;6.90;99.90
24682;DHT22;12802;53.390;-2.328;2023-03-01T08:54:56;7.00;99.90
24682;DHT22;12802;53.390;-2.328;2023-03-01T08:57:22;7.00;99.90
24682;DHT22;12802;53.390;-2.328;2023-03-01T08:59:47;7.10;99.90
24682;DHT22;12802;53.390;-2.328;2023-03-01T09:02:17;7.00;99.90
24682;DHT22;12802;53.390;-2.328;2023-03-01T09:04:43;7.00;99.90
24682;DHT22;12802;53.390;-2.328;2023-03-01T09:07:10;7.10;99.90
24682;DHT22;12802;53.390;-2.328;2023-03-01T09:09:36;7.10;99.90
24682;DHT22;12802;53.390;-2.328;2023-03-01T09:12:03;7.10;99.90
24682;DHT22;12802;53.390;-2.328;2023-03-01T09:14:29;7.20;99.90
24682;DHT22;12802;53.390;-2.328;2023-03-01T09:16:57;7.10;99.90
24682;DHT22;12802;53.390;-2.328;2023-03-01T09:19:23;7.20;99.90
24682;DHT22;12802;53.390;-2.328;2023-03-01T09:21:48;7.20;99.90
24682;DHT22;12802;53.390;-2.328;2023-03-01T09:24:20;7.30;99.90
24682;DHT22;12802;53.390;-2.328;2023-03-01T09:26:46;7.30;99.90
24682;DHT22;12802;53.390;-2.328;2023-03-01T09:29:13;7.40;99.90
24682;DHT22;12802;53.390;-2.328;2023-03-01T09:31:39;7.40;99.90
24682;DHT22;12802;53.390;-2.328;2023-03-01T09:34:06;7.40;99.90
24682;DHT22;12802;53.390;-2.328;2023-03-01T09:36:32;7.40;99.90
24682;DHT22;12802;53.390;-2.328;2023-03-01T09:38:59;7.50;99.90
24682;DHT22;12802;53.390;-2.328;2023-03-01T09:44:32;7.40;99.90
24682;DHT22;12802;53.390;-2.328;2023-03-01T09:47:02;7.40;99.90
24682;DHT22;12802;53.390;-2.328;2023-03-01T09:49:36;7.40;99.90
24682;DHT22;12802;53.390;-2.328;2023-03-01T09:52:38;7.50;99.90
24682;DHT22;12802;53.390;-2.328;2023-03-01T09:55:15;7.50;99.90
24682;DHT22;12802;53.390;-2.328;2023-03-01T09:57:59;7.60;99.90
24682;DHT22;12802;53.390;-2.328;2023-03-01T10:08:40;7.70;99.90
24682;DHT22;12802;53.390;-2.328;2023-03-01T10:11:37;7.70;99.90
24682;DHT22;12802;53.390;-2.328;2023-03-01T10:17:15;7.80;99.90
24682;DHT22;12802;53.390;-2.328;2023-03-01T10:19:46;7.90;99.90
24682;DHT22;12802;53.390;-2.328;2023-03-01T10:22:22;8.10;99.90
24682;DHT22;12802;53.390;-2.328;2023-03-01T10:24:51;8.40;99.90
24682;DHT22;12802;53.390;-2.328;2023-03-01T10:30:14;8.10;99.90
24682;DHT22;12802;53.390;-2.328;2023-03-01T10:32:43;8.00;99.90
24682;DHT22;12802;53.390;-2.328;2023-03-01T10:35:21;8.10;99.90
24682;DHT22;12802;53.390;-2.328;2023-03-01T10:38:18;8.10;99.90
24682;DHT22;12802;53.390;-2.328;2023-03-01T10:40:57;8.20;99.90
24682;DHT22;12802;53.390;-2.328;2023-03-01T10:43:26;8.10;99.90
24682;DHT22;12802;53.390;-2.328;2023-03-01T10:45:53;8.10;99.90
24682;DHT22;12802;53.390;-2.328;2023-03-01T10:48:24;8.10;99.90
24682;DHT22;12802;53.390;-2.328;2023-03-01T10:56:12;8.20;99.90
24682;DHT22;12802;53.390;-2.328;2023-03-01T10:58:41;8.10;99.90
24682;DHT22;12802;53.390;-2.328;2023-03-01T11:03:40;8.00;99.90
24682;DHT22;12802;53.390;-2.328;2023-03-01T11:08:43;7.90;99.90
24682;DHT22;12802;53.390;-2.328;2023-03-01T11:13:54;8.00;99.90
24682;DHT22;12802;53.390;-2.328;2023-03-01T11:19:01;8.10;99.90
24682;DHT22;12802;53.390;-2.328;2023-03-01T11:21:29;8.20;99.90
24682;DHT22;12802;53.390;-2.328;2023-03-01T11:24:00;8.20;99.90
24682;DHT22;12802;53.390;-2.328;2023-03-01T11:26:27;8.30;99.90
24682;DHT22;12802;53.390;-2.328;2023-03-01T11:28:56;8.30;99.90
24682;DHT22;12802;53.390;-2.328;2023-03-01T11:31:24;8.60;99.90
24682;DHT22;12802;53.390;-2.328;2023-03-01T11:38:55;9.10;99.90
24682;DHT22;12802;53.390;-2.328;2023-03-01T11:41:25;8.90;99.90
24682;DHT22;12802;53.390;-2.328;2023-03-01T11:44:10;8.70;99.90
24682;DHT22;12802;53.390;-2.328;2023-03-01T11:46:52;8.70;99.90
24682;DHT22;12802;53.390;-2.328;2023-03-01T11:52:22;8.60;99.90
24682;DHT22;12802;53.390;-2.328;2023-03-01T12:03:52;8.30;99.90
24682;DHT22;12802;53.390;-2.328;2023-03-01T12:06:46;8.60;99.90
24682;DHT22;12802;53.390;-2.328;2023-03-01T12:12:27;8.90;99.90
24682;DHT22;12802;53.390;-2.328;2023-03-01T12:20:58;9.10;99.90
24682;DHT22;12802;53.390;-2.328;2023-03-01T12:23:47;9.00;99.90
24682;DHT22;12802;53.390;-2.328;2023-03-01T12:29:31;9.10;99.90
24682;DHT22;12802;53.390;-2.328;2023-03-01T12:35:06;8.90;99.90
24682;DHT22;12802;53.390;-2.328;2023-03-01T12:43:56;8.80;99.90
24682;DHT22;12802;53.390;-2.328;2023-03-01T12:49:23;8.80;99.90
24682;DHT22;12802;53.390;-2.328;2023-03-01T12:54:29;8.80;99.90
24682;DHT22;12802;53.390;-2.328;2023-03-01T12:56:59;8.90;99.90
24682;DHT22;12802;53.390;-2.328;2023-03-01T13:10:39;8.80;99.90
24682;DHT22;12802;53.390;-2.328;2023-03-01T13:15:37;9.00;99.90
24682;DHT22;12802;53.390;-2.328;2023-03-01T13:23:09;9.40;99.90
24682;DHT22;12802;53.390;-2.328;2023-03-01T13:34:01;9.20;99.90
24682;DHT22;12802;53.390;-2.328;2023-03-01T13:46:44;9.60;99.90
24682;DHT22;12802;53.390;-2.328;2023-03-01T13:49:15;9.50;99.90
24682;DHT22;12802;53.390;-2.328;2023-03-01T13:51:46;9.50;99.90
24682;DHT22;12802;53.390;-2.328;2023-03-01T13:54:14;9.40;99.90
24682;DHT22;12802;53.390;-2.328;2023-03-01T13:56:41;9.40;99.90
24682;DHT22;12802;53.390;-2.328;2023-03-01T13:59:14;9.50;99.90
24682;DHT22;12802;53.390;-2.328;2023-03-01T14:01:40;9.70;99.90
24682;DHT22;12802;53.390;-2.328;2023-03-01T14:04:29;9.70;99.90
24682;DHT22;12802;53.390;-2.328;2023-03-01T14:07:19;9.50;99.90
24682;DHT22;12802;53.390;-2.328;2023-03-01T14:09:48;9.30;99.90
24682;DHT22;12802;53.390;-2.328;2023-03-01T14:12:26;9.10;99.90
24682;DHT22;12802;53.390;-2.328;2023-03-01T14:15:42;9.00;99.90
24682;DHT22;12802;53.390;-2.328;2023-03-01T14:18:22;9.00;99.90
24682;DHT22;12802;53.390;-2.328;2023-03-01T14:20:51;9.00;99.90
24682;DHT22;12802;53.390;-2.328;2023-03-01T14:23:21;9.00;99.90
24682;DHT22;12802;53.390;-2.328;2023-03-01T14:25:53;8.90;99.90
24682;DHT22;12802;53.390;-2.328;2023-03-01T14:28:26;9.10;99.90
24682;DHT22;12802;53.390;-2.328;2023-03-01T14:30:55;9.40;99.90
24682;DHT22;12802;53.390;-2.328;2023-03-01T14:33:33;9.40;99.90
24682;DHT22;12802;53.390;-2.328;2023-03-01T14:36:05;9.50;99.90
24682;DHT22;12802;53.390;-2.328;2023-03-01T14:38:37;9.50;99.90
24682;DHT22;12802;53.390;-2.328;2023-03-01T14:43:32;9.30;99.90
24682;DHT22;12802;53.390;-2.328;2023-03-01T14:45:58;9.20;99.90
24682;DHT22;12802;53.390;-2.328;2023-03-01T14:48:24;9.10;99.90
24682;DHT22;12802;53.390;-2.328;2023-03-01T14:50:52;9.00;99.90
24682;DHT22;12802;53.390;-2.328;2023-03-01T14:55:56;8.90;99.90
24682;DHT22;12802;53.390;-2.328;2023-03-01T14:58:26;8.90;99.90
24682;DHT22;12802;53.390;-2.328;2023-03-01T15:01:00;9.00;99.90
24682;DHT22;12802;53.390;-2.328;2023-03-01T15:03:33;9.20;99.90
24682;DHT22;12802;53.390;-2.328;2023-03-01T15:06:03;9.10;99.90
24682;DHT22;12802;53.390;-2.328;2023-03-01T15:08:31;9.10;99.90
24682;DHT22;12802;53.390;-2.328;2023-03-01T15:11:16;9.20;99.90
24682;DHT22;12802;53.390;-2.328;2023-03-01T15:13:42;9.30;99.90
24682;DHT22;12802;53.390;-2.328;2023-03-01T15:16:11;9.30;99.90
24682;DHT22;12802;53.390;-2.328;2023-03-01T15:18:44;9.30;99.90
24682;DHT22;12802;53.390;-2.328;2023-03-01T15:21:27;9.20;99.90
24682;DHT22;12802;53.390;-2.328;2023-03-01T15:24:02;9.20;99.90
24682;DHT22;12802;53.390;-2.328;2023-03-01T15:26:33;9.00;99.90
24682;DHT22;12802;53.390;-2.328;2023-03-01T15:29:01;8.90;99.90
24682;DHT22;12802;53.390;-2.328;2023-03-01T15:31:34;8.70;99.90
24682;DHT22;12802;53.390;-2.328;2023-03-01T15:34:21;8.60;99.90
24682;DHT22;12802;53.390;-2.328;2023-03-01T15:36:49;8.50;99.90
24682;DHT22;12802;53.390;-2.328;2023-03-01T15:41:53;8.30;99.90
24682;DHT22;12802;53.390;-2.328;2023-03-01T15:44:32;8.30;99.90
24682;DHT22;12802;53.390;-2.328;2023-03-01T15:46:59;8.20;99.90
24682;DHT22;12802;53.390;-2.328;2023-03-01T15:49:38;8.00;99.90
24682;DHT22;12802;53.390;-2.328;2023-03-01T15:52:08;8.20;99.90
24682;DHT22;12802;53.390;-2.328;2023-03-01T15:54:36;8.40;99.90
24682;DHT22;12802;53.390;-2.328;2023-03-01T15:57:03;8.40;99.90
24682;DHT22;12802;53.390;-2.328;2023-03-01T15:59:29;8.30;99.90
24682;DHT22;12802;53.390;-2.328;2023-03-01T16:01:54;8.30;99.90
24682;DHT22;12802;53.390;-2.328;2023-03-01T16:04:20;8.40;99.90
24682;DHT22;12802;53.390;-2.328;2023-03-01T16:06:52;8.40;99.90
24682;DHT22;12802;53.390;-2.328;2023-03-01T16:09:25;8.30;99.90
24682;DHT22;12802;53.390;-2.328;2023-03-01T16:11:52;8.20;99.90
24682;DHT22;12802;53.390;-2.328;2023-03-01T16:14:18;8.20;99.90
24682;DHT22;12802;53.390;-2.328;2023-03-01T16:16:44;8.20;99.90
24682;DHT22;12802;53.390;-2.328;2023-03-01T16:19:11;8.30;99.90
24682;DHT22;12802;53.390;-2.328;2023-03-01T16:21:37;8.30;99.90
24682;DHT22;12802;53.390;-2.328;2023-03-01T16:24:03;8.20;99.90
24682;DHT22;12802;53.390;-2.328;2023-03-01T16:26:29;8.10;99.90
24682;DHT22;12802;53.390;-2.328;2023-03-01T16:28:56;8.00;99.90
24682;DHT22;12802;53.390;-2.328;2023-03-01T16:31:23;8.00;99.90
24682;DHT22;12802;53.390;-2.328;2023-03-01T16:33:53;8.00;99.90
24682;DHT22;12802;53.390;-2.328;2023-03-01T16:36:20;8.00;99.90
24682;DHT22;12802;53.390;-2.328;2023-03-01T16:38:49;8.00;99.90
24682;DHT22;12802;53.390;-2.328;2023-03-01T16:41:18;8.10;99.90
24682;DHT22;12802;53.390;-2.328;2023-03-01T16:43:44;8.10;99.90
24682;DHT22;12802;53.390;-2.328;2023-03-01T16:46:14;8.10;99.90
24682;DHT22;12802;53.390;-2.328;2023-03-01T16:48:41;8.00;99.90
24682;DHT22;12802;53.390;-2.328;2023-03-01T16:51:07;8.00;99.90
24682;DHT22;12802;53.390;-2.328;2023-03-01T16:53:34;8.00;99.90
24682;DHT22;12802;53.390;-2.328;2023-03-01T16:56:06;8.00;99.90
24682;DHT22;12802;53.390;-2.328;2023-03-01T16:58:33;7.90;99.90
24682;DHT22;12802;53.390;-2.328;2023-03-01T17:01:14;7.90;99.90
24682;DHT22;12802;53.390;-2.328;2023-03-01T17:03:41;7.90;99.90
24682;DHT22;12802;53.390;-2.328;2023-03-01T17:06:13;7.80;99.90
24682;DHT22;12802;53.390;-2.328;2023-03-01T17:08:39;7.80;99.90
24682;DHT22;12802;53.390;-2.328;2023-03-01T17:11:09;7.70;99.90
24682;DHT22;12802;53.390;-2.328;2023-03-01T17:13:36;7.70;99.90
24682;DHT22;12802;53.390;-2.328;2023-03-01T17:16:04;7.70;99.90
24682;DHT22;12802;53.390;-2.328;2023-03-01T17:18:30;7.70;99.90
24682;DHT22;12802;53.390;-2.328;2023-03-01T17:20:56;7.60;99.90
24682;DHT22;12802;53.390;-2.328;2023-03-01T17:23:21;7.60;99.90
24682;DHT22;12802;53.390;-2.328;2023-03-01T17:25:47;7.60;99.90
24682;DHT22;12802;53.390;-2.328;2023-03-01T17:28:14;7.70;99.90
24682;DHT22;12802;53.390;-2.328;2023-03-01T17:30:44;7.60;99.90
24682;DHT22;12802;53.390;-2.328;2023-03-01T17:33:10;7.60;99.90
24682;DHT22;12802;53.390;-2.328;2023-03-01T17:35:37;7.60;99.90
24682;DHT22;12802;53.390;-2.328;2023-03-01T17:38:03;7.70;99.90
24682;DHT22;12802;53.390;-2.328;2023-03-01T17:40:30;7.70;99.90
24682;DHT22;12802;53.390;-2.328;2023-03-01T17:42:57;7.60;99.90
24682;DHT22;12802;53.390;-2.328;2023-03-01T17:45:23;7.50;99.90
24682;DHT22;12802;53.390;-2.328;2023-03-01T17:47:49;7.60;99.90
24682;DHT22;12802;53.390;-2.328;2023-03-01T17:50:15;7.60;99.90
24682;DHT22;12802;53.390;-2.328;2023-03-01T17:52:41;7.60;99.90
24682;DHT22;12802;53.390;-2.328;2023-03-01T17:55:08;7.50;99.90
24682;DHT22;12802;53.390;-2.328;2023-03-01T17:57:34;7.40;99.90
24682;DHT22;12802;53.390;-2.328;2023-03-01T17:59:59;7.50;99.90
24682;DHT22;12802;53.390;-2.328;2023-03-01T18:02:25;7.50;99.90
24682;DHT22;12802;53.390;-2.328;2023-03-01T18:04:51;7.60;99.90